CYAY

Saint Anthony Airport

St. Anthony, Canada
METAR CYAY 230100Z AUTO 27014G19KT 9SM CLR M13/M17 A2999 RMK ICG SLP160
Observed Flight Rules
Jan-23 @ 01:00 UTC (54 minutes ago) Visual Flight Rules
Wind Visibility Clouds
270° at 14 knots
 Gusting to 19 knots
9 miles
  • Clear skies
Temperatures Readings
Current -13°C / 9°F
Dewpoint -17°C / 1°F
Humidity 72%
Altimeter 29.99" Hg
Pressure 1016 hPa
Elevation 28
METAR CYAY 230100Z AUTO 27014G19KT 9SM CLR M13/M17 A2999 RMK ICG SLP160
Observed Flight Rules
Jan-23 @ 01:00 UTC
(54 minutes ago)
VFR
Wind Visibility
270° at 14 knots
 Gusting to 19 knots
9 miles
Clouds
  • Clear skies
Temperature Dewpoint
-13°C / 9°F -17°C / 1°F
Humidity Altimeter Pressure
72% 29.99" Hg 1016 hPa